Nord Nanami — 3EWR2 — position and weather

sailwx.info

Track history (hours):
 
Tides and Currents Weather Stations Pressure Air Temp Water Temp Dewpoint Dewpoint Depression Visibility Wind Speed Wind Dir Waves Ship Positions

Nord Nanami

Last reported at 2015-Apr-02 14:09 UTC. Time now 2015-May-27 18:01 UTC.
Position N 26°52' W 014°43'.
Warning: this ship's position is 55 days out of date.

Length 180 m; draft 10.6 m.

Type: Cargo ship. MMSI: 373694000.

Date/timePositionNaut miles runAvg speedWind from/ knotsBaromVisibWave heightAir tempDewpointWater temp
2015-Apr-02 14:09N 26°52' W 014°43'2012.5
2015-Apr-02 12:33N 27°08' W 014°30'1212.4
2015-Apr-02 11:33N 27°18' W 014°21'1212.2
2015-Apr-02 10:33N 27°27' W 014°13'1312.6
2015-Apr-02 09:33N 27°37' W 014°04'1312.9
2015-Apr-02 08:33N 27°47' W 013°55'1312.9
2015-Apr-02 07:33N 27°57' W 013°46'1412.6
2015-Apr-02 06:29N 28°08' W 013°36'1212.6
2015-Apr-02 05:33N 28°17' W 013°28'1212.5
2015-Apr-02 04:33N 28°27' W 013°20'1312.5
2015-Apr-02 03:33N 28°37' W 013°11'1412.8
2015-Apr-02 02:29N 28°47' W 013°01'1512.6
2015-Apr-02 01:20N 28°59' W 012°51'1012.5
2015-Apr-02 00:33N 29°09' W 012°48'1812.7
2015-Apr-01 23:09N 29°26' W 012°45'712.5
2015-Apr-01 22:33N 29°34' W 012°44'1312.7
2015-Apr-01 21:33N 29°46' W 012°42'1212.4
2015-Apr-01 20:33N 29°58' W 012°39'1312.5
2015-Apr-01 19:33N 30°11' W 012°37'1312.8
2015-Apr-01 18:31N 30°24' W 012°35'1612.8
2015-Apr-01 17:17N 30°40' W 012°32'1112.7
2015-Apr-01 16:23N 30°51' W 012°30'5112.3
2015-Apr-01 12:13N 31°41' W 012°20'11612.0
2015-Apr-01 02:33N 33°36' W 011°59'1611.7
2015-Apr-01 01:11N 33°52' W 011°56'811.9
2015-Apr-01 00:33N 33°59' W 011°54'2412.0
2015-Mar-31 22:33N 34°23' W 011°50'1312.0
2015-Mar-31 21:29N 34°35' W 011°47'1511.9
2015-Mar-31 20:15N 34°50' W 011°44'1112.0
2015-Mar-31 19:20N 35°01' W 011°42'1512.0
2015-Mar-31 18:07N 35°15' W 011°40'711.7
2015-Mar-31 17:29N 35°23' W 011°38'3511.8
2015-Mar-31 14:31N 35°57' W 011°31'1412.1
2015-Mar-31 13:22N 36°11' W 011°28'1012.0
2015-Mar-31 12:33N 36°20' W 011°26'1612.0
2015-Mar-31 11:11N 36°37' W 011°23'1312.2
2015-Mar-31 10:08N 36°49' W 011°21'912.5
2015-Mar-31 09:23N 36°59' W 011°19'1012.3
2015-Mar-31 08:33N 37°09' W 011°17'1212.3
2015-Mar-31 07:33N 37°21' W 011°14'1211.9
2015-Mar-31 06:33N 37°33' W 011°12'1212.0
2015-Mar-31 05:32N 37°45' W 011°10'1212.0
2015-Mar-31 04:33N 37°56' W 011°08'1212.0
2015-Mar-31 03:33N 38°08' W 011°05'1212.1
2015-Mar-31 02:33N 38°20' W 011°02'1212.0
2015-Mar-31 01:33N 38°32' W 010°60'1212.0
2015-Mar-31 00:33N 38°44' W 010°57'1212.2
2015-Mar-30 23:33N 38°56' W 010°55'2311.7
2015-Mar-30 21:33N 39°19' W 010°51'  
2015-Mar-27 16:20N 50°20' W 000°57'2010.7
2015-Mar-27 14:29N 50°26' W 000°28'1010.5
2015-Mar-27 13:33N 50°28' W 000°13'1210.8
2015-Mar-27 12:25N 50°31' E 000°06'1011.6
2015-Mar-27 11:33N 50°34' E 000°21'1212.3
2015-Mar-27 10:33N 50°38' E 000°39'1312.9
2015-Mar-27 09:33N 50°45' E 000°56'1312.6
2015-Mar-27 08:33N 50°52' E 001°12'1211.9
2015-Mar-27 07:33N 51°01' E 001°26'1110.5
2015-Mar-27 06:33N 51°08' E 001°38'1010.1
2015-Mar-27 05:34N 51°16' E 001°48'1010.4
2015-Mar-27 04:33N 51°25' E 001°56'1111.1
2015-Mar-27 03:33N 51°34' E 002°07'1211.9
2015-Mar-27 02:32N 51°42' E 002°21'7311.6
2015-Mar-26 20:15N 52°40' E 003°34'710.1
2015-Mar-26 19:33N 52°46' E 003°41'10 9.7
2015-Mar-26 18:32N 52°53' E 003°51'1010.1
2015-Mar-26 17:33N 53°00' E 004°03'1110.9
2015-Mar-26 16:33N 53°07' E 004°17'2110.1
2015-Mar-26 14:28N 53°26' E 004°33'1010.3
2015-Mar-26 13:28N 53°35' E 004°39'910.1
2015-Mar-26 12:33N 53°44' E 004°43'1110.2
2015-Mar-26 11:31N 53°55' E 004°48'1010.6
2015-Mar-26 10:32N 54°05' E 004°53'1210.9
2015-Mar-26 09:28N 54°16' E 004°58'1111.5
2015-Mar-26 08:30N 54°26' E 005°05'1212.5
2015-Mar-26 07:33N 54°37' E 005°14'1211.7
2015-Mar-26 06:32N 54°48' E 005°23'24611.2
2015-Mar-25 08:33N 57°50' E 010°20'1212.1
2015-Mar-25 07:33N 57°50' E 010°42'9 8.7
2015-Mar-25 06:33N 57°42' E 010°47'5 4.0
2015-Mar-25 05:23N 57°39' E 010°40'0 0.0
2015-Mar-25 04:08N 57°39' E 010°40'0 0.0
2015-Mar-25 03:28N 57°39' E 010°40'0 0.0
2015-Mar-25 02:29N 57°39' E 010°40'0 0.0
2015-Mar-25 01:29N 57°39' E 010°40'0 0.0
2015-Mar-25 00:28N 57°39' E 010°41'0 0.0
2015-Mar-24 23:31N 57°39' E 010°41'0 0.0
2015-Mar-24 22:28N 57°39' E 010°41'0 0.0
2015-Mar-24 21:32N 57°39' E 010°41'0 0.0
2015-Mar-24 20:22N 57°39' E 010°41'0 0.1
2015-Mar-24 19:20N 57°39' E 010°41'4 5.3
2015-Mar-24 18:33N 57°38' E 010°48'1211.7
2015-Mar-24 17:33N 57°33' E 011°08'1211.7
2015-Mar-24 16:33N 57°28' E 011°28'1312.6
2015-Mar-24 15:33N 57°16' E 011°36'1312.9
2015-Mar-24 14:33N 57°04' E 011°44'1312.6
2015-Mar-24 13:33N 56°52' E 011°52'10 9.7
2015-Mar-24 12:33N 56°42' E 011°48'1311.9
2015-Mar-24 11:29N 56°34' E 011°31'2110.7
2015-Mar-24 09:33N 56°18' E 011°06'1211.6
2015-Mar-24 08:32N 56°06' E 011°05'80 9.6
2015-Mar-24 00:14N 54°47' E 010°49'710.5
2015-Mar-23 23:34N 54°40' E 010°49'1111.3
2015-Mar-23 22:33N 54°36' E 011°07'1211.8
2015-Mar-23 21:33N 54°32' E 011°26'1111.2
2015-Mar-23 20:33N 54°28' E 011°44'1111.0
2015-Mar-23 19:33N 54°27' E 012°03'9 9.2
2015-Mar-23 18:33N 54°33' E 012°14'9 9.1
2015-Mar-23 17:33N 54°40' E 012°24'1111.4
2015-Mar-23 16:33N 54°47' E 012°40'1111.2
2015-Mar-23 15:33N 54°51' E 012°58'1211.5
2015-Mar-23 14:33N 54°55' E 013°17'  
Track history (hours):
 
Tides and Currents Weather Stations Pressure Air Temp Water Temp Dewpoint Dewpoint Depression Visibility Wind Speed Wind Dir Waves Ship Positions

Nord Nanami

Last reported at 2015-Apr-02 14:09 UTC. Time now 2015-May-27 18:01 UTC.
Position N 26°52' W 014°43'.
Warning: this ship's position is 55 days out of date.

Length 180 m; draft 10.6 m.

Type: Cargo ship. MMSI: 373694000.

Date/timePositionNaut miles runAvg speedWind from/ knotsBaromVisibWave heightAir tempDewpointWater temp
2015-Apr-02 14:09N 26°52' W 014°43'2012.5
2015-Apr-02 12:33N 27°08' W 014°30'1212.4
2015-Apr-02 11:33N 27°18' W 014°21'1212.2
2015-Apr-02 10:33N 27°27' W 014°13'1312.6
2015-Apr-02 09:33N 27°37' W 014°04'1312.9
2015-Apr-02 08:33N 27°47' W 013°55'1312.9
2015-Apr-02 07:33N 27°57' W 013°46'1412.6
2015-Apr-02 06:29N 28°08' W 013°36'1212.6
2015-Apr-02 05:33N 28°17' W 013°28'1212.5
2015-Apr-02 04:33N 28°27' W 013°20'1312.5
2015-Apr-02 03:33N 28°37' W 013°11'1412.8
2015-Apr-02 02:29N 28°47' W 013°01'1512.6
2015-Apr-02 01:20N 28°59' W 012°51'1012.5
2015-Apr-02 00:33N 29°09' W 012°48'1812.7
2015-Apr-01 23:09N 29°26' W 012°45'712.5
2015-Apr-01 22:33N 29°34' W 012°44'1312.7
2015-Apr-01 21:33N 29°46' W 012°42'1212.4
2015-Apr-01 20:33N 29°58' W 012°39'1312.5
2015-Apr-01 19:33N 30°11' W 012°37'1312.8
2015-Apr-01 18:31N 30°24' W 012°35'1612.8
2015-Apr-01 17:17N 30°40' W 012°32'1112.7
2015-Apr-01 16:23N 30°51' W 012°30'5112.3
2015-Apr-01 12:13N 31°41' W 012°20'11612.0
2015-Apr-01 02:33N 33°36' W 011°59'1611.7
2015-Apr-01 01:11N 33°52' W 011°56'811.9
2015-Apr-01 00:33N 33°59' W 011°54'2412.0
2015-Mar-31 22:33N 34°23' W 011°50'1312.0
2015-Mar-31 21:29N 34°35' W 011°47'1511.9
2015-Mar-31 20:15N 34°50' W 011°44'1112.0
2015-Mar-31 19:20N 35°01' W 011°42'1512.0
2015-Mar-31 18:07N 35°15' W 011°40'711.7
2015-Mar-31 17:29N 35°23' W 011°38'3511.8
2015-Mar-31 14:31N 35°57' W 011°31'1412.1
2015-Mar-31 13:22N 36°11' W 011°28'1012.0
2015-Mar-31 12:33N 36°20' W 011°26'1612.0
2015-Mar-31 11:11N 36°37' W 011°23'1312.2
2015-Mar-31 10:08N 36°49' W 011°21'912.5
2015-Mar-31 09:23N 36°59' W 011°19'1012.3
2015-Mar-31 08:33N 37°09' W 011°17'1212.3
2015-Mar-31 07:33N 37°21' W 011°14'1211.9
2015-Mar-31 06:33N 37°33' W 011°12'1212.0
2015-Mar-31 05:32N 37°45' W 011°10'1212.0
2015-Mar-31 04:33N 37°56' W 011°08'1212.0
2015-Mar-31 03:33N 38°08' W 011°05'1212.1
2015-Mar-31 02:33N 38°20' W 011°02'1212.0
2015-Mar-31 01:33N 38°32' W 010°60'1212.0
2015-Mar-31 00:33N 38°44' W 010°57'1212.2
2015-Mar-30 23:33N 38°56' W 010°55'2311.7
2015-Mar-30 21:33N 39°19' W 010°51'  
2015-Mar-27 16:20N 50°20' W 000°57'2010.7
2015-Mar-27 14:29N 50°26' W 000°28'1010.5
2015-Mar-27 13:33N 50°28' W 000°13'1210.8
2015-Mar-27 12:25N 50°31' E 000°06'1011.6
2015-Mar-27 11:33N 50°34' E 000°21'1212.3
2015-Mar-27 10:33N 50°38' E 000°39'1312.9
2015-Mar-27 09:33N 50°45' E 000°56'1312.6
2015-Mar-27 08:33N 50°52' E 001°12'1211.9
2015-Mar-27 07:33N 51°01' E 001°26'1110.5
2015-Mar-27 06:33N 51°08' E 001°38'1010.1
2015-Mar-27 05:34N 51°16' E 001°48'1010.4
2015-Mar-27 04:33N 51°25' E 001°56'1111.1
2015-Mar-27 03:33N 51°34' E 002°07'1211.9
2015-Mar-27 02:32N 51°42' E 002°21'7311.6
2015-Mar-26 20:15N 52°40' E 003°34'710.1
2015-Mar-26 19:33N 52°46' E 003°41'10 9.7
2015-Mar-26 18:32N 52°53' E 003°51'1010.1
2015-Mar-26 17:33N 53°00' E 004°03'1110.9
2015-Mar-26 16:33N 53°07' E 004°17'2110.1
2015-Mar-26 14:28N 53°26' E 004°33'1010.3
2015-Mar-26 13:28N 53°35' E 004°39'910.1
2015-Mar-26 12:33N 53°44' E 004°43'1110.2
2015-Mar-26 11:31N 53°55' E 004°48'1010.6
2015-Mar-26 10:32N 54°05' E 004°53'1210.9
2015-Mar-26 09:28N 54°16' E 004°58'1111.5
2015-Mar-26 08:30N 54°26' E 005°05'1212.5
2015-Mar-26 07:33N 54°37' E 005°14'1211.7
2015-Mar-26 06:32N 54°48' E 005°23'24611.2
2015-Mar-25 08:33N 57°50' E 010°20'1212.1
2015-Mar-25 07:33N 57°50' E 010°42'9 8.7
2015-Mar-25 06:33N 57°42' E 010°47'5 4.0
2015-Mar-25 05:23N 57°39' E 010°40'0 0.0
2015-Mar-25 04:08N 57°39' E 010°40'0 0.0
2015-Mar-25 03:28N 57°39' E 010°40'0 0.0
2015-Mar-25 02:29N 57°39' E 010°40'0 0.0
2015-Mar-25 01:29N 57°39' E 010°40'0 0.0
2015-Mar-25 00:28N 57°39' E 010°41'0 0.0
2015-Mar-24 23:31N 57°39' E 010°41'0 0.0
2015-Mar-24 22:28N 57°39' E 010°41'0 0.0
2015-Mar-24 21:32N 57°39' E 010°41'0 0.0
2015-Mar-24 20:22N 57°39' E 010°41'0 0.1
2015-Mar-24 19:20N 57°39' E 010°41'4 5.3
2015-Mar-24 18:33N 57°38' E 010°48'1211.7
2015-Mar-24 17:33N 57°33' E 011°08'1211.7
2015-Mar-24 16:33N 57°28' E 011°28'1312.6
2015-Mar-24 15:33N 57°16' E 011°36'1312.9
2015-Mar-24 14:33N 57°04' E 011°44'1312.6
2015-Mar-24 13:33N 56°52' E 011°52'10 9.7
2015-Mar-24 12:33N 56°42' E 011°48'1311.9
2015-Mar-24 11:29N 56°34' E 011°31'2110.7
2015-Mar-24 09:33N 56°18' E 011°06'1211.6
2015-Mar-24 08:32N 56°06' E 011°05'80 9.6
2015-Mar-24 00:14N 54°47' E 010°49'710.5
2015-Mar-23 23:34N 54°40' E 010°49'1111.3
2015-Mar-23 22:33N 54°36' E 011°07'1211.8
2015-Mar-23 21:33N 54°32' E 011°26'1111.2
2015-Mar-23 20:33N 54°28' E 011°44'1111.0
2015-Mar-23 19:33N 54°27' E 012°03'9 9.2
2015-Mar-23 18:33N 54°33' E 012°14'9 9.1
2015-Mar-23 17:33N 54°40' E 012°24'1111.4
2015-Mar-23 16:33N 54°47' E 012°40'1111.2
2015-Mar-23 15:33N 54°51' E 012°58'1211.5
2015-Mar-23 14:33N 54°55' E 013°17'  

Dump ship's entire track history